createdAt,value
2023-05-06T00:01:29.368Z,11.90
2023-05-06T00:03:58.058Z,11.90
2023-05-06T00:06:27.601Z,11.80
2023-05-06T00:08:56.305Z,11.80
2023-05-06T00:11:24.837Z,11.70
2023-05-06T00:13:54.028Z,11.70
2023-05-06T00:16:24.922Z,11.70
2023-05-06T00:18:53.667Z,11.60
2023-05-06T00:21:22.274Z,11.60
2023-05-06T00:23:50.784Z,11.50
2023-05-06T00:26:20.264Z,11.40
2023-05-06T00:28:48.816Z,11.40
2023-05-06T00:31:17.327Z,11.30
2023-05-06T00:33:47.292Z,11.30
2023-05-06T00:36:15.833Z,11.30
2023-05-06T00:38:44.392Z,11.20
2023-05-06T00:41:12.998Z,11.30
2023-05-06T00:43:42.471Z,11.30
2023-05-06T00:46:12.166Z,11.30
2023-05-06T00:48:41.437Z,11.20
2023-05-06T00:51:11.634Z,11.20
2023-05-06T00:53:40.767Z,11.20
2023-05-06T00:56:09.729Z,11.20
2023-05-06T00:58:39.250Z,11.20
2023-05-06T01:01:08.387Z,11.20
2023-05-06T01:03:38.308Z,11.10
2023-05-06T01:06:15.466Z,11.10
2023-05-06T01:08:49.264Z,11.10
2023-05-06T01:11:25.496Z,11.10
2023-05-06T01:14:00.314Z,11.10
2023-05-06T01:16:32.471Z,11.10
2023-05-06T01:19:02.404Z,11.10
2023-05-06T01:21:34.995Z,11.10
2023-05-06T01:24:05.058Z,11.10
2023-05-06T01:26:33.603Z,11.00
2023-05-06T01:29:04.060Z,11.00
2023-05-06T01:31:39.857Z,11.00
2023-05-06T01:34:15.494Z,11.00
2023-05-06T01:36:55.020Z,11.00
2023-05-06T01:39:27.531Z,11.00
2023-05-06T01:41:59.344Z,11.00
2023-05-06T01:44:33.376Z,11.00
2023-05-06T01:47:02.443Z,11.00
2023-05-06T01:49:31.722Z,10.90
2023-05-06T01:52:00.376Z,10.90
2023-05-06T01:54:32.355Z,10.90
2023-05-06T01:57:03.494Z,10.90
2023-05-06T01:59:32.027Z,10.90
2023-05-06T02:02:00.929Z,10.90
2023-05-06T02:04:29.508Z,10.90
2023-05-06T02:06:58.512Z,10.90
2023-05-06T02:09:26.998Z,10.80
2023-05-06T02:12:01.822Z,10.70
2023-05-06T02:27:23.878Z,10.50
2023-05-06T02:29:52.435Z,10.40
2023-05-06T02:32:21.048Z,10.40
2023-05-06T02:34:49.693Z,10.40
2023-05-06T02:37:18.212Z,10.30
2023-05-06T02:39:46.730Z,10.30
2023-05-06T02:42:27.799Z,10.30
2023-05-06T02:44:57.724Z,10.20
2023-05-06T02:47:26.292Z,10.20
2023-05-06T02:49:54.930Z,10.10
2023-05-06T02:52:23.477Z,10.10
2023-05-06T02:54:52.263Z,10.10
2023-05-06T02:57:20.812Z,10.00
2023-05-06T02:59:49.406Z,10.00
2023-05-06T03:02:19.297Z,10.00
2023-05-06T03:04:47.831Z,10.00
2023-05-06T03:07:16.389Z,10.00
2023-05-06T03:09:45.630Z,10.00
2023-05-06T03:12:14.328Z,9.90
2023-05-06T03:14:43.001Z,9.90
2023-05-06T03:17:12.695Z,9.90
2023-05-06T03:19:43.042Z,9.90
2023-05-06T03:22:13.933Z,9.90
2023-05-06T03:24:45.430Z,9.90
2023-05-06T03:27:14.535Z,10.00
2023-05-06T03:29:44.701Z,9.90
2023-05-06T03:32:14.875Z,10.00
2023-05-06T03:34:47.265Z,10.00
2023-05-06T03:37:20.276Z,10.00
2023-05-06T03:39:53.780Z,10.10
2023-05-06T03:42:25.981Z,10.10
2023-05-06T03:44:54.727Z,10.20
2023-05-06T03:47:24.428Z,10.20
2023-05-06T03:49:54.337Z,10.30
2023-05-06T03:52:22.971Z,10.30
2023-05-06T03:54:51.802Z,10.30
2023-05-06T03:57:20.487Z,10.40
2023-05-06T03:59:49.097Z,10.40
2023-05-06T04:24:51.928Z,10.30
2023-05-06T04:27:21.161Z,10.40
2023-05-06T04:29:50.346Z,10.50
2023-05-06T04:32:19.023Z,10.40
2023-05-06T04:34:48.207Z,10.50
2023-05-06T04:37:18.970Z,10.50
2023-05-06T04:39:52.598Z,10.60
2023-05-06T04:42:21.669Z,10.60
2023-05-06T04:45:03.545Z,10.60
2023-05-06T04:47:35.529Z,10.60
2023-05-06T04:50:05.552Z,10.70
2023-05-06T04:52:35.809Z,10.80
2023-05-06T04:55:06.424Z,10.90
2023-05-06T04:57:37.436Z,11.00
2023-05-06T05:00:07.991Z,11.00
2023-05-06T05:02:37.270Z,11.10
2023-05-06T05:05:07.762Z,11.10
2023-05-06T05:07:36.504Z,11.20
2023-05-06T05:10:09.257Z,11.20
2023-05-06T05:12:39.058Z,11.30
2023-05-06T05:15:09.211Z,11.40
2023-05-06T05:17:39.688Z,11.40
2023-05-06T05:20:10.000Z,11.40
2023-05-06T05:22:39.038Z,11.50
2023-05-06T05:25:10.095Z,11.50
2023-05-06T05:27:39.106Z,11.60
2023-05-06T05:30:09.352Z,11.60
2023-05-06T05:32:40.608Z,11.70
2023-05-06T05:35:10.829Z,11.80
2023-05-06T05:37:41.988Z,11.80
2023-05-06T05:40:13.327Z,12.00
2023-05-06T05:42:43.869Z,12.20
2023-05-06T05:45:22.318Z,12.30
2023-05-06T05:47:51.922Z,12.40
2023-05-06T05:50:20.684Z,12.40
2023-05-06T05:52:49.667Z,12.40
2023-05-06T05:55:21.099Z,12.30
2023-05-06T05:57:50.221Z,12.40
2023-05-06T06:00:21.149Z,12.20
2023-05-06T06:02:49.646Z,12.20
2023-05-06T06:05:22.253Z,12.10
2023-05-06T06:07:51.463Z,12.10
2023-05-06T06:10:21.677Z,12.10
2023-05-06T06:12:51.050Z,12.10
2023-05-06T06:15:23.781Z,12.00
2023-05-06T06:17:55.041Z,12.10
2023-05-06T06:20:25.514Z,12.00
2023-05-06T06:22:55.053Z,12.00
2023-05-06T06:25:24.993Z,12.10
2023-05-06T06:27:53.519Z,12.10
2023-05-06T06:30:22.098Z,12.00
2023-05-06T06:32:52.398Z,12.10
2023-05-06T06:35:21.192Z,12.20
2023-05-06T06:37:49.813Z,12.10
2023-05-06T06:40:18.465Z,12.20
2023-05-06T06:42:48.448Z,12.30
2023-05-06T06:45:40.145Z,12.40
2023-05-06T06:48:08.798Z,12.40
2023-05-06T06:50:37.308Z,12.50
2023-05-06T06:53:06.467Z,12.50
2023-05-06T06:55:35.400Z,12.50
2023-05-06T06:58:05.441Z,12.40
2023-05-06T07:00:34.008Z,12.40
2023-05-06T07:03:02.659Z,12.40
2023-05-06T07:05:31.308Z,12.40
2023-05-06T07:07:59.855Z,12.40
2023-05-06T07:10:28.372Z,12.40
2023-05-06T07:12:58.365Z,12.50
2023-05-06T07:15:28.490Z,12.50
2023-05-06T07:17:57.352Z,12.60
2023-05-06T07:20:25.870Z,12.70
2023-05-06T07:42:32.971Z,13.00
2023-05-06T07:45:01.451Z,13.10
2023-05-06T07:47:35.060Z,13.10
2023-05-06T07:50:05.148Z,13.10
2023-05-06T07:52:34.353Z,13.00
2023-05-06T07:55:03.108Z,12.90
2023-05-06T07:57:33.883Z,12.70
2023-05-06T08:00:02.381Z,12.60
2023-05-06T08:02:44.452Z,12.60
2023-05-06T08:05:13.879Z,12.50
2023-05-06T08:07:42.892Z,12.50
2023-05-06T08:10:12.056Z,12.30
2023-05-06T08:12:42.637Z,12.10
2023-05-06T08:15:12.673Z,11.70
2023-05-06T08:17:41.479Z,11.50
2023-05-06T08:20:11.078Z,11.30
2023-05-06T08:22:39.678Z,11.10
2023-05-06T08:25:09.529Z,10.90
2023-05-06T08:27:38.288Z,10.80
2023-05-06T08:30:09.901Z,10.70
2023-05-06T08:32:39.329Z,10.60
2023-05-06T08:35:08.970Z,10.40
2023-05-06T08:37:37.850Z,10.40
2023-05-06T08:40:10.701Z,10.40
2023-05-06T08:42:40.038Z,10.40
2023-05-06T08:45:12.918Z,10.40
2023-05-06T08:47:42.585Z,10.40
2023-05-06T08:50:12.521Z,10.40
2023-05-06T08:52:41.753Z,10.40
2023-05-06T08:55:11.639Z,10.50
2023-05-06T08:57:41.759Z,10.50
2023-05-06T09:00:13.166Z,10.60
2023-05-06T09:02:43.299Z,10.60
2023-05-06T09:05:12.738Z,10.50
2023-05-06T09:07:41.548Z,10.50
2023-05-06T09:10:14.644Z,10.40
2023-05-06T09:12:43.193Z,10.40
2023-05-06T09:15:13.964Z,10.50
2023-05-06T09:17:49.652Z,10.50
2023-05-06T09:20:18.282Z,10.50
2023-05-06T09:22:47.220Z,10.50
2023-05-06T09:25:16.078Z,10.40
2023-05-06T09:27:44.857Z,10.50
2023-05-06T09:30:16.060Z,10.50
2023-05-06T09:32:49.841Z,10.50
2023-05-06T09:35:18.527Z,10.40
2023-05-06T09:37:47.092Z,10.50
2023-05-06T09:40:15.967Z,10.50
2023-05-06T09:42:45.885Z,10.50
2023-05-06T09:45:18.168Z,10.40
2023-05-06T09:47:49.695Z,10.40
2023-05-06T09:50:18.505Z,10.30
2023-05-06T09:52:48.415Z,10.40
2023-05-06T09:55:18.859Z,10.30
2023-05-06T09:57:48.796Z,10.40
2023-05-06T10:00:26.983Z,10.30
2023-05-06T10:02:56.455Z,10.30
2023-05-06T10:05:27.138Z,10.20
2023-05-06T10:07:58.346Z,10.20
2023-05-06T10:10:29.665Z,10.20
2023-05-06T10:12:58.416Z,10.20
2023-05-06T10:15:28.569Z,10.20
2023-05-06T10:17:57.565Z,10.20
2023-05-06T10:20:28.500Z,10.20
2023-05-06T10:23:09.263Z,10.30
2023-05-06T10:25:40.164Z,10.40
2023-05-06T10:28:12.736Z,10.40
2023-05-06T10:30:54.864Z,10.40
2023-05-06T10:33:25.770Z,10.40
2023-05-06T10:35:58.564Z,10.50
2023-05-06T10:38:31.640Z,10.50
2023-05-06T10:41:01.730Z,10.60
2023-05-06T10:43:32.151Z,10.50
2023-05-06T10:46:09.205Z,10.50
2023-05-06T10:48:39.631Z,10.60
2023-05-06T10:51:24.972Z,10.50
2023-05-06T10:54:02.564Z,10.50
2023-05-06T10:56:33.240Z,10.50
2023-05-06T10:59:11.320Z,10.50
2023-05-06T11:01:42.696Z,10.60
2023-05-06T11:04:13.474Z,10.60
2023-05-06T11:06:44.606Z,10.50
2023-05-06T11:09:21.553Z,10.50
2023-05-06T11:12:01.898Z,10.60
2023-05-06T11:14:31.786Z,10.60
2023-05-06T11:17:02.837Z,10.60
2023-05-06T11:19:33.065Z,10.70
2023-05-06T11:22:02.768Z,10.70
2023-05-06T11:24:39.291Z,10.80
2023-05-06T11:27:09.379Z,10.90
2023-05-06T11:29:38.137Z,11.00
2023-05-06T11:32:22.741Z,11.00
2023-05-06T11:34:55.728Z,11.10
2023-05-06T11:37:27.152Z,11.00
2023-05-06T11:39:55.896Z,11.00
2023-05-06T11:42:28.421Z,11.00
2023-05-06T11:45:01.708Z,11.00
2023-05-06T11:47:35.755Z,11.10
2023-05-06T11:50:07.772Z,11.10
2023-05-06T11:52:37.321Z,11.10
2023-05-06T11:55:11.018Z,11.20
2023-05-06T11:57:46.302Z,11.30
2023-05-06T12:00:15.807Z,11.30
2023-05-06T12:02:45.778Z,11.20
2023-05-06T12:05:14.726Z,11.20
2023-05-06T12:07:44.613Z,11.20
2023-05-06T12:10:14.180Z,11.30
2023-05-06T12:12:42.928Z,11.60
2023-05-06T12:15:13.180Z,11.90
2023-05-06T12:17:42.362Z,12.10
2023-05-06T12:20:14.283Z,12.30
2023-05-06T12:22:55.527Z,12.30
2023-05-06T12:25:24.148Z,12.50
2023-05-06T12:27:52.712Z,12.60
2023-05-06T12:30:30.968Z,12.60
2023-05-06T12:32:59.947Z,12.60
2023-05-06T12:35:32.943Z,12.70
2023-05-06T12:38:10.484Z,12.80
2023-05-06T12:40:39.869Z,12.80
2023-05-06T12:43:08.959Z,12.70
2023-05-06T12:45:38.818Z,12.70
2023-05-06T12:48:08.425Z,12.70
2023-05-06T12:50:40.435Z,12.70
2023-05-06T12:53:10.967Z,12.70
2023-05-06T12:55:41.788Z,12.70
2023-05-06T12:58:17.878Z,12.70
2023-05-06T13:00:46.541Z,12.60
2023-05-06T13:03:15.308Z,12.50
2023-05-06T13:05:46.487Z,12.50
2023-05-06T13:08:15.142Z,12.30
2023-05-06T13:10:43.770Z,12.30
2023-05-06T13:13:12.452Z,12.30
2023-05-06T13:15:41.286Z,12.20
2023-05-06T13:18:10.464Z,12.20
2023-05-06T13:20:39.058Z,12.10
2023-05-06T13:23:08.999Z,12.20
2023-05-06T13:25:47.988Z,12.30
2023-05-06T13:28:25.347Z,12.40
2023-05-06T13:30:53.920Z,12.40
2023-05-06T13:33:22.581Z,12.40
2023-05-06T13:35:51.103Z,12.40
2023-05-06T13:38:21.108Z,12.30
2023-05-06T13:40:52.470Z,12.30
2023-05-06T13:43:21.130Z,12.30
2023-05-06T13:45:49.686Z,12.40
2023-05-06T13:48:18.748Z,12.40
2023-05-06T13:50:48.336Z,12.40
2023-05-06T13:53:17.329Z,12.50
2023-05-06T13:55:47.905Z,12.70
2023-05-06T13:58:17.475Z,12.90
2023-05-06T14:00:46.463Z,12.80
2023-05-06T14:03:15.154Z,12.80
2023-05-06T14:05:43.667Z,12.90
2023-05-06T14:08:12.364Z,12.90
2023-05-06T14:10:40.964Z,13.00
2023-05-06T14:13:11.581Z,13.00
2023-05-06T14:15:40.263Z,12.90
2023-05-06T14:18:08.971Z,12.90
2023-05-06T14:20:37.653Z,12.90
2023-05-06T14:23:07.075Z,13.00
2023-05-06T14:25:35.840Z,13.20
2023-05-06T14:28:04.470Z,13.40
2023-05-06T14:30:34.422Z,13.60
2023-05-06T14:33:03.096Z,13.50
2023-05-06T14:35:31.690Z,13.40
2023-05-06T14:38:00.535Z,13.20
2023-05-06T14:40:29.355Z,13.20
2023-05-06T14:42:57.897Z,13.10
2023-05-06T14:45:26.516Z,12.90
2023-05-06T14:47:56.532Z,12.90
2023-05-06T14:50:25.189Z,12.90
2023-05-06T14:52:53.828Z,13.00
2023-05-06T14:55:22.524Z,13.10
2023-05-06T14:57:51.590Z,13.10
2023-05-06T15:00:20.860Z,13.00
2023-05-06T15:02:49.427Z,12.90
2023-05-06T15:05:19.517Z,12.90
2023-05-06T15:07:48.144Z,13.10
2023-05-06T15:10:16.876Z,13.00
2023-05-06T15:12:45.525Z,12.80
2023-05-06T15:15:14.216Z,12.80
2023-05-06T15:17:43.001Z,12.80
2023-05-06T15:20:12.519Z,12.80
2023-05-06T15:22:42.466Z,12.70
2023-05-06T15:25:16.818Z,12.60
2023-05-06T15:27:55.156Z,12.70
2023-05-06T15:30:24.490Z,12.70
2023-05-06T15:32:53.262Z,12.70
2023-05-06T15:35:22.094Z,12.60
2023-05-06T15:37:58.884Z,12.70
2023-05-06T15:40:28.415Z,12.70
2023-05-06T15:42:57.209Z,12.80
2023-05-06T15:45:25.841Z,12.90
2023-05-06T15:47:55.693Z,12.90
2023-05-06T15:50:32.964Z,12.80
2023-05-06T15:53:04.400Z,12.80
2023-05-06T15:55:43.397Z,12.80
2023-05-06T15:58:13.019Z,12.70
2023-05-06T16:00:41.899Z,12.80
2023-05-06T16:03:13.713Z,12.80
2023-05-06T16:05:51.971Z,12.70
2023-05-06T16:08:23.711Z,12.60
2023-05-06T16:10:55.576Z,12.50
2023-05-06T16:13:31.712Z,12.60
2023-05-06T16:16:03.917Z,12.60
2023-05-06T16:18:32.631Z,12.60
2023-05-06T16:21:01.212Z,12.50
2023-05-06T16:23:31.248Z,12.50
2023-05-06T16:26:00.990Z,12.50
2023-05-06T16:28:29.528Z,12.50
2023-05-06T16:30:58.187Z,12.50
2023-05-06T16:33:26.866Z,12.50
2023-05-06T16:35:55.770Z,12.50
2023-05-06T16:38:24.884Z,12.50
2023-05-06T16:40:54.919Z,12.60
2023-05-06T16:43:24.237Z,12.50
2023-05-06T16:45:52.991Z,12.50
2023-05-06T16:48:21.764Z,12.40
2023-05-06T16:50:50.583Z,12.40
2023-05-06T16:53:19.166Z,12.50
2023-05-06T16:55:48.957Z,12.40
2023-05-06T16:58:19.356Z,12.40
2023-05-06T17:00:48.425Z,12.30
2023-05-06T17:03:17.786Z,12.20
2023-05-06T17:05:46.909Z,12.20
2023-05-06T17:08:16.892Z,12.10
2023-05-06T17:10:45.496Z,12.10
2023-05-06T17:13:14.410Z,12.10
2023-05-06T17:15:44.647Z,12.10
2023-05-06T17:18:13.552Z,12.10
2023-05-06T17:20:54.287Z,12.10
2023-05-06T17:23:25.247Z,12.00
2023-05-06T17:25:54.089Z,11.90
2023-05-06T17:28:22.784Z,11.90
2023-05-06T17:30:52.915Z,11.90
2023-05-06T17:33:22.983Z,11.90
2023-05-06T17:35:51.605Z,11.80
2023-05-06T17:38:20.599Z,11.80
2023-05-06T17:40:49.259Z,11.80
2023-05-06T17:43:17.851Z,11.80
2023-05-06T17:45:46.925Z,11.80
2023-05-06T17:48:17.022Z,11.70
2023-05-06T17:50:45.854Z,11.70
2023-05-06T17:53:14.386Z,11.70
2023-05-06T17:55:43.231Z,11.70
2023-05-06T17:58:11.944Z,11.70
2023-05-06T18:00:40.975Z,11.70
2023-05-06T18:03:09.552Z,11.50
2023-05-06T18:05:39.646Z,11.60
2023-05-06T18:08:09.616Z,11.60
2023-05-06T18:10:38.712Z,11.60
2023-05-06T18:13:07.912Z,11.50
2023-05-06T18:15:36.539Z,11.50
2023-05-06T18:18:05.417Z,11.50
2023-05-06T18:20:34.232Z,11.40
2023-05-06T18:23:04.144Z,11.40
2023-05-06T18:25:32.752Z,11.40
2023-05-06T18:28:01.308Z,11.30
2023-05-06T18:30:30.351Z,11.30
2023-05-06T18:32:58.865Z,11.30
2023-05-06T18:45:02.985Z,11.20
2023-05-06T18:47:33.461Z,11.10
2023-05-06T18:50:02.172Z,11.10
2023-05-06T18:52:32.449Z,11.10
2023-05-06T18:55:02.870Z,11.10
2023-05-06T18:57:32.914Z,11.10
2023-05-06T19:00:02.939Z,11.00
2023-05-06T19:02:34.662Z,11.00
2023-05-06T19:05:03.584Z,11.00
2023-05-06T19:07:32.853Z,11.00
2023-05-06T19:10:01.378Z,10.90
2023-05-06T19:12:31.760Z,10.90
2023-05-06T19:15:00.411Z,10.90
2023-05-06T19:17:30.879Z,10.90
2023-05-06T19:19:59.464Z,10.80
2023-05-06T19:22:29.846Z,10.80
2023-05-06T19:24:58.483Z,10.70
2023-05-06T19:27:27.128Z,10.60
2023-05-06T19:29:55.718Z,10.60
2023-05-06T19:32:24.342Z,10.60
2023-05-06T19:34:54.277Z,10.50
2023-05-06T19:37:22.839Z,10.50
2023-05-06T19:39:51.436Z,10.50
2023-05-06T19:42:19.971Z,10.30
2023-05-06T19:44:49.056Z,10.20
2023-05-06T19:47:17.649Z,10.10
2023-05-06T19:49:46.305Z,10.00
2023-05-06T19:52:16.200Z,10.00
2023-05-06T19:54:44.806Z,9.90
2023-05-06T19:57:13.304Z,9.90
2023-05-06T19:59:41.842Z,9.80
2023-05-06T20:02:13.484Z,9.80
2023-05-06T20:04:54.269Z,9.70
2023-05-06T20:07:33.251Z,9.70
2023-05-06T20:10:05.553Z,9.60
2023-05-06T20:12:35.143Z,9.60
2023-05-06T20:15:08.672Z,9.50
2023-05-06T20:17:37.724Z,9.50
2023-05-06T20:20:13.303Z,9.50
2023-05-06T20:22:43.322Z,9.40
2023-05-06T20:25:14.561Z,9.40
2023-05-06T20:27:44.521Z,9.40
2023-05-06T20:30:15.141Z,9.40
2023-05-06T20:32:54.220Z,9.30
2023-05-06T20:35:23.420Z,9.30
2023-05-06T20:37:54.826Z,9.30
2023-05-06T20:40:23.608Z,9.30
2023-05-06T20:42:52.209Z,9.30
2023-05-06T20:45:21.450Z,9.30
2023-05-06T20:47:50.170Z,9.30
2023-05-06T20:50:19.982Z,9.30
2023-05-06T20:52:48.973Z,9.30
2023-05-06T20:55:20.747Z,9.30
2023-05-06T20:57:50.147Z,9.20
2023-05-06T21:03:19.998Z,9.10
2023-05-06T21:05:48.722Z,9.20
2023-05-06T21:08:18.225Z,9.20
2023-05-06T21:10:48.410Z,9.20
2023-05-06T21:13:17.290Z,9.10
2023-05-06T21:15:45.978Z,9.10
2023-05-06T21:18:14.698Z,9.10
2023-05-06T21:20:43.479Z,9.10
2023-05-06T21:23:12.173Z,9.00
2023-05-06T21:25:40.864Z,9.10
2023-05-06T21:28:11.105Z,9.00
2023-05-06T21:30:39.756Z,9.00
2023-05-06T21:33:11.229Z,9.00
2023-05-06T21:35:40.044Z,9.00
2023-05-06T21:38:08.651Z,9.00
2023-05-06T21:40:37.255Z,9.00
2023-05-06T21:43:05.849Z,9.00
2023-05-06T21:45:35.973Z,9.00
2023-05-06T21:48:04.697Z,9.00
2023-05-06T21:50:33.435Z,9.00
2023-05-06T21:53:02.015Z,9.00
2023-05-06T21:55:30.612Z,9.00
2023-05-06T21:57:59.146Z,9.00
2023-05-06T22:00:28.217Z,9.00
2023-05-06T22:02:58.122Z,9.00
2023-05-06T22:05:26.762Z,9.00
2023-05-06T22:07:55.245Z,9.00
2023-05-06T22:10:23.900Z,9.00
2023-05-06T22:12:52.770Z,9.00
2023-05-06T22:15:21.398Z,9.00
2023-05-06T22:17:50.036Z,9.00
2023-05-06T22:20:21.470Z,9.00
2023-05-06T22:22:52.565Z,9.00
2023-05-06T22:25:21.331Z,9.00
2023-05-06T22:27:49.985Z,9.00
2023-05-06T22:30:18.733Z,9.00
2023-05-06T22:32:47.277Z,9.00
2023-05-06T22:35:16.140Z,8.90
2023-05-06T22:37:46.336Z,8.90
2023-05-06T22:40:15.314Z,9.00
2023-05-06T22:42:54.584Z,8.90
2023-05-06T22:45:25.682Z,8.90
2023-05-06T22:47:59.925Z,8.90
2023-05-06T22:50:36.484Z,8.80
2023-05-06T22:53:14.023Z,8.80
2023-05-06T22:55:45.432Z,8.80
2023-05-06T22:58:24.364Z,8.80
2023-05-06T23:00:53.068Z,8.80
2023-05-06T23:03:22.776Z,8.70
2023-05-06T23:05:51.704Z,8.60
2023-05-06T23:08:37.816Z,8.60
2023-05-06T23:11:47.325Z,8.60
2023-05-06T23:14:17.463Z,8.60
2023-05-06T23:16:46.150Z,8.60
2023-05-06T23:19:14.812Z,8.60
2023-05-06T23:21:44.090Z,8.60
2023-05-06T23:24:14.105Z,8.60
2023-05-06T23:26:47.337Z,8.60
2023-05-06T23:29:16.117Z,8.60
2023-05-06T23:31:44.668Z,8.50
2023-05-06T23:34:13.296Z,8.50
2023-05-06T23:36:43.924Z,8.50
2023-05-06T23:39:21.892Z,8.50
2023-05-06T23:41:55.133Z,8.50
2023-05-06T23:44:27.411Z,8.50
2023-05-06T23:46:56.227Z,8.50
2023-05-06T23:49:25.072Z,8.50
2023-05-06T23:51:53.821Z,8.50
2023-05-06T23:54:23.792Z,8.50
2023-05-06T23:57:06.753Z,8.50
2023-05-06T23:59:35.328Z,8.40
